Time;durP1;ratioP1;P1;durP2;ratioP2;P2;SDS_P1;SDS_P2;PMS_P1;PMS_P2;Temp;Humidity;BMP_temperature;BMP_pressure;BME280_temperature;BME280_humidity;BME280_pressure;Samples;Min_cycle;Max_cycle;Signal;HPM_P1;HPM_P2
2020/12/17 05:03:21;;;;;;;16.57;12.07;;;5.00;99.90;;;;;;4694277;24;180275;-70
2020/12/17 05:05:51;;;;;;;45.67;14.43;;;4.90;99.90;;;;;;4645677;29;179816;-69
2020/12/17 05:08:21;;;;;;;46.30;15.03;;;5.00;99.90;;;;;;4645471;29;179060;-70
2020/12/17 05:10:48;;;;;;;78.50;19.27;;;5.00;99.90;;;;;;4648547;29;179558;-70
2020/12/17 05:13:16;;;;;;;26.53;13.47;;;4.90;99.90;;;;;;4649250;29;179324;-70
2020/12/17 05:15:44;;;;;;;17.10;12.47;;;5.00;99.90;;;;;;4650660;29;178440;-69
2020/12/17 05:18:10;;;;;;;49.60;15.47;;;4.90;99.90;;;;;;4649426;29;178058;-69
2020/12/17 05:20:39;;;;;;;19.33;13.00;;;4.90;99.90;;;;;;4648256;29;178643;-69
2020/12/17 05:23:05;;;;;;;19.03;12.40;;;;;;;;;;4646759;29;182635;-71
2020/12/17 05:25:33;;;;;;;39.10;15.67;;;4.90;99.90;;;;;;4650050;29;181576;-69
2020/12/17 05:28:04;;;;;;;54.47;15.60;;;4.90;99.90;;;;;;4650330;29;177842;-71
2020/12/17 05:30:35;;;;;;;21.57;13.73;;;4.90;99.90;;;;;;4649871;29;178252;-68
2020/12/17 05:33:03;;;;;;;25.97;13.63;;;4.80;99.90;;;;;;4649407;29;180174;-69
2020/12/17 05:35:35;;;;;;;27.17;14.63;;;4.80;99.90;;;;;;4649956;29;178349;-68
2020/12/17 05:38:06;;;;;;;22.03;13.27;;;4.80;99.90;;;;;;4649795;29;178538;-68
2020/12/17 05:40:42;;;;;;;20.03;13.03;;;4.80;99.90;;;;;;4649646;29;176511;-68
2020/12/17 05:43:10;;;;;;;28.07;13.80;;;4.80;99.90;;;;;;4649051;29;179196;-68
2020/12/17 05:45:37;;;;;;;39.27;14.60;;;4.80;99.90;;;;;;4650097;29;178534;-69
2020/12/17 05:48:18;;;;;;;22.23;14.27;;;4.70;99.90;;;;;;4648122;29;181339;-69
2020/12/17 05:50:59;;;;;;;41.70;16.07;;;4.70;99.90;;;;;;4649756;29;177902;-69
2020/12/17 05:53:38;;;;;;;42.30;14.87;;;4.70;99.90;;;;;;4649199;29;180208;-69
2020/12/17 05:56:06;;;;;;;54.03;17.37;;;4.70;99.90;;;;;;4649762;29;178563;-69
2020/12/17 05:58:46;;;;;;;32.23;14.90;;;4.70;99.90;;;;;;4649849;29;178319;-68
2020/12/17 06:01:19;;;;;;;34.37;15.13;;;4.70;99.90;;;;;;4647796;29;178083;-68
2020/12/17 06:03:45;;;;;;;37.33;14.90;;;4.70;99.90;;;;;;4649530;29;178621;-69
2020/12/17 06:06:12;;;;;;;60.37;18.77;;;4.70;99.90;;;;;;4650632;29;178755;-69
2020/12/17 06:08:40;;;;;;;36.60;14.90;;;4.60;99.90;;;;;;4649174;29;178434;-71
2020/12/17 06:11:08;;;;;;;40.67;15.60;;;4.70;99.90;;;;;;4649835;29;178897;-68
2020/12/17 06:13:39;;;;;;;19.30;13.50;;;4.60;99.90;;;;;;4647467;29;183989;-68
2020/12/17 06:16:07;;;;;;;61.77;17.03;;;4.60;99.90;;;;;;4649503;29;181437;-68
2020/12/17 06:18:51;;;;;;;22.73;13.83;;;4.60;99.90;;;;;;4649478;29;179504;-68
2020/12/17 06:21:19;;;;;;;32.17;14.60;;;4.60;99.90;;;;;;4649705;29;178020;-69
2020/12/17 06:23:47;;;;;;;42.83;16.67;;;4.60;99.90;;;;;;4649189;29;180348;-68
2020/12/17 06:26:13;;;;;;;23.60;13.37;;;4.60;99.90;;;;;;4649186;29;178837;-68
2020/12/17 06:28:46;;;;;;;61.47;17.90;;;4.60;99.90;;;;;;4649517;29;178394;-68
2020/12/17 06:31:15;;;;;;;38.93;15.43;;;4.60;99.90;;;;;;4648884;29;176995;-68
2020/12/17 06:33:43;;;;;;;22.27;13.07;;;4.60;99.90;;;;;;4648140;29;180056;-69
2020/12/17 06:36:17;;;;;;;59.53;15.83;;;4.60;99.90;;;;;;4647597;29;178419;-69
2020/12/17 06:38:45;;;;;;;40.37;15.63;;;4.60;99.90;;;;;;4639600;29;181790;-68
2020/12/17 06:41:17;;;;;;;33.27;14.73;;;4.60;99.90;;;;;;4649002;29;179055;-69
2020/12/17 06:43:44;;;;;;;28.93;14.40;;;4.50;99.90;;;;;;4648865;29;178998;-68
2020/12/17 06:46:31;;;;;;;66.30;17.17;;;4.50;99.90;;;;;;4649121;29;177922;-68
2020/12/17 06:48:57;;;;;;;22.47;13.77;;;4.50;99.90;;;;;;4648972;29;178777;-68
2020/12/17 06:51:41;;;;;;;22.43;13.27;;;4.50;99.90;;;;;;4648732;29;178109;-68
2020/12/17 06:54:16;;;;;;;89.07;19.70;;;4.50;99.90;;;;;;4647972;29;179760;-68
2020/12/17 06:57:01;;;;;;;40.23;15.93;;;4.90;99.90;;;;;;4649779;29;178983;-68
2020/12/17 06:59:27;;;;;;;135.90;23.30;;;4.50;99.90;;;;;;4648640;29;178747;-68
2020/12/17 07:01:53;;;;;;;101.80;19.27;;;4.50;99.90;;;;;;4648212;29;178345;-68
2020/12/17 07:04:40;;;;;;;77.37;18.50;;;4.40;99.90;;;;;;4646180;29;182822;-68
2020/12/17 07:07:18;;;;;;;113.87;21.13;;;4.50;99.90;;;;;;4659527;29;182990;-68
2020/12/17 07:09:50;;;;;;;66.07;17.43;;;4.50;99.90;;;;;;4649121;29;178692;-69
2020/12/17 07:12:34;;;;;;;87.27;19.83;;;4.50;99.90;;;;;;4648825;29;178697;-68
2020/12/17 07:15:05;;;;;;;165.83;26.63;;;4.50;99.90;;;;;;4648812;29;179432;-70
2020/12/17 07:17:31;;;;;;;91.10;19.20;;;4.50;99.90;;;;;;4648425;29;178481;-68
2020/12/17 07:19:58;;;;;;;133.13;23.83;;;4.50;99.90;;;;;;4649053;29;177922;-68
2020/12/17 07:22:24;;;;;;;102.27;20.87;;;4.50;99.90;;;;;;4649184;29;176500;-68
2020/12/17 07:24:52;;;;;;;191.93;25.40;;;4.50;99.90;;;;;;4648093;29;178853;-68
2020/12/17 07:27:27;;;;;;;20.90;13.90;;;4.50;99.90;;;;;;4648189;29;178609;-68
2020/12/17 07:30:11;;;;;;;42.90;15.47;;;4.60;99.90;;;;;;4647202;29;181297;-69
2020/12/17 07:32:44;;;;;;;22.90;14.13;;;4.60;99.90;;;;;;4648467;29;178114;-69
2020/12/17 07:35:11;;;;;;;18.00;12.60;;;4.60;99.90;;;;;;4648305;29;179315;-69
2020/12/17 07:37:49;;;;;;;29.93;13.70;;;4.60;99.90;;;;;;4647601;29;178241;-69
2020/12/17 07:40:21;;;;;;;148.00;23.87;;;4.60;99.90;;;;;;4648070;29;177838;-68
2020/12/17 07:42:59;;;;;;;47.93;16.00;;;4.60;99.90;;;;;;4647525;29;178780;-71
2020/12/17 07:45:46;;;;;;;87.23;20.23;;;4.70;99.90;;;;;;4648081;29;179168;-69
2020/12/17 07:48:42;;;;;;;20.77;13.37;;;4.70;99.90;;;;;;4648871;29;178505;-69
2020/12/17 07:51:14;;;;;;;42.03;15.03;;;4.70;99.90;;;;;;4647896;29;179627;-69
2020/12/17 07:53:46;;;;;;;84.40;18.43;;;4.70;99.90;;;;;;4647985;29;178027;-69
2020/12/17 07:56:12;;;;;;;174.57;26.53;;;4.70;99.90;;;;;;4646448;29;181982;-69
2020/12/17 07:58:40;;;;;;;123.00;22.13;;;4.80;99.90;;;;;;4647412;29;181119;-71
2020/12/17 08:01:07;;;;;;;26.80;14.67;;;4.80;99.90;;;;;;4647129;29;178002;-71
2020/12/17 08:03:43;;;;;;;25.93;13.87;;;4.80;99.90;;;;;;4649685;29;178051;-70
2020/12/17 08:06:12;;;;;;;42.67;15.73;;;4.80;99.90;;;;;;4643872;29;179262;-69
2020/12/17 08:08:39;;;;;;;251.60;31.37;;;4.80;99.90;;;;;;4650099;29;178969;-69
2020/12/17 08:11:07;;;;;;;58.73;16.20;;;4.80;99.90;;;;;;4651126;29;178064;-69
2020/12/17 08:13:36;;;;;;;29.77;14.30;;;4.90;99.90;;;;;;4651789;29;177775;-69
2020/12/17 08:16:06;;;;;;;62.57;16.30;;;4.80;99.90;;;;;;4650397;29;179386;-70
2020/12/17 08:18:34;;;;;;;155.97;23.97;;;4.90;99.90;;;;;;4651493;29;179920;-71
2020/12/17 08:21:11;;;;;;;30.30;14.70;;;4.90;99.90;;;;;;4649224;29;182073;-71
2020/12/17 08:23:39;;;;;;;33.73;14.70;;;4.90;99.90;;;;;;4650791;29;177909;-69
2020/12/17 08:26:09;;;;;;;55.63;16.47;;;4.90;99.90;;;;;;4650171;29;179586;-70
2020/12/17 08:28:38;;;;;;;58.17;15.50;;;4.90;99.90;;;;;;4650420;29;178340;-70
2020/12/17 08:31:09;;;;;;;98.27;19.70;;;4.90;99.90;;;;;;4650485;29;177986;-70
2020/12/17 08:33:39;;;;;;;119.47;21.87;;;4.90;99.90;;;;;;4651106;29;178037;-69
2020/12/17 08:36:08;;;;;;;127.40;22.30;;;5.00;99.90;;;;;;4650709;29;178844;-68
2020/12/17 08:38:35;;;;;;;129.10;22.97;;;5.00;99.90;;;;;;4651306;29;177795;-71
2020/12/17 08:41:03;;;;;;;47.93;15.53;;;5.00;99.90;;;;;;4650407;29;177953;-70
2020/12/17 08:43:35;;;;;;;78.77;18.23;;;5.00;99.90;;;;;;4650025;29;178574;-70
2020/12/17 08:46:02;;;;;;;25.07;13.87;;;5.00;99.90;;;;;;4648478;29;183492;-69
2020/12/17 08:48:32;;;;;;;78.00;18.30;;;5.00;99.90;;;;;;4650728;29;181786;-72
2020/12/17 08:50:59;;;;;;;71.47;16.97;;;5.00;99.90;;;;;;4650277;29;178142;-69
2020/12/17 08:53:28;;;;;;;69.10;16.90;;;5.00;99.90;;;;;;4650384;29;179654;-70
2020/12/17 08:56:05;;;;;;;38.40;15.57;;;5.10;99.90;;;;;;4650189;29;179537;-69
2020/12/17 08:58:31;;;;;;;159.23;24.67;;;5.10;99.90;;;;;;4650551;29;178546;-69
2020/12/17 09:00:58;;;;;;;79.03;19.60;;;5.10;99.90;;;;;;4649794;29;178434;-70
2020/12/17 09:03:25;;;;;;;21.70;13.60;;;5.00;99.90;;;;;;4649768;29;176691;-71
2020/12/17 09:06:03;;;;;;;51.70;15.73;;;5.10;99.90;;;;;;4649872;29;178451;-69
2020/12/17 09:08:30;;;;;;;26.27;13.40;;;5.10;99.90;;;;;;4649408;29;178333;-68
2020/12/17 09:10:57;;;;;;;42.63;15.50;;;5.10;99.90;;;;;;4648888;29;181616;-69
2020/12/17 09:13:23;;;;;;;17.83;12.80;;;5.10;99.90;;;;;;4649841;29;178738;-69
2020/12/17 09:16:00;;;;;;;25.60;13.97;;;5.10;99.90;;;;;;4650540;29;179246;-70
2020/12/17 09:18:28;;;;;;;24.20;13.70;;;5.10;99.90;;;;;;4649948;29;179161;-69
2020/12/17 09:21:10;;;;;;;19.17;12.43;;;5.10;99.90;;;;;;4650576;29;177858;-70
2020/12/17 09:23:38;;;;;;;24.53;13.70;;;5.10;99.90;;;;;;4650421;29;179118;-69
2020/12/17 09:26:14;;;;;;;18.30;12.77;;;5.20;99.90;;;;;;4650658;29;179900;-72
2020/12/17 09:28:55;;;;;;;25.57;13.60;;;5.20;99.90;;;;;;4650750;29;178334;-70
2020/12/17 09:31:26;;;;;;;20.47;13.43;;;5.10;99.90;;;;;;4650248;29;177911;-69
2020/12/17 09:34:13;;;;;;;20.27;13.37;;;5.10;99.90;;;;;;4650538;29;178609;-70
2020/12/17 09:36:42;;;;;;;18.30;12.87;;;5.20;99.90;;;;;;4648882;29;183897;-69
2020/12/17 09:39:12;;;;;;;20.90;13.40;;;5.20;99.90;;;;;;4649869;29;180620;-70
2020/12/17 09:41:49;;;;;;;19.70;12.73;;;5.20;99.90;;;;;;4650042;29;177968;-69
2020/12/17 09:44:34;;;;;;;18.13;12.50;;;5.20;99.90;;;;;;4650545;29;177926;-69
2020/12/17 09:47:03;;;;;;;17.90;12.63;;;5.20;99.90;;;;;;4649941;29;179237;-69
2020/12/17 09:49:37;;;;;;;27.40;13.23;;;5.30;99.90;;;;;;4649984;29;177961;-70
2020/12/17 09:52:09;;;;;;;19.07;13.23;;;5.20;99.90;;;;;;4649003;29;178015;-69
2020/12/17 09:54:42;;;;;;;20.03;12.67;;;5.30;99.90;;;;;;4650227;29;177030;-70
2020/12/17 09:57:13;;;;;;;17.87;12.57;;;5.30;99.90;;;;;;4649188;29;179309;-70
2020/12/17 09:59:42;;;;;;;17.53;12.50;;;5.30;99.90;;;;;;4649813;29;178724;-71
2020/12/17 10:02:15;;;;;;;30.27;14.23;;;5.40;99.90;;;;;;4647099;29;181644;-69
2020/12/17 10:04:41;;;;;;;22.13;13.30;;;5.40;99.90;;;;;;4649579;29;177945;-69
2020/12/17 10:07:10;;;;;;;18.10;12.93;;;5.40;99.90;;;;;;4649011;29;179312;-68
2020/12/17 10:09:36;;;;;;;18.47;13.27;;;5.40;99.90;;;;;;4648960;29;178287;-69
2020/12/17 10:12:03;;;;;;;18.20;12.93;;;5.40;99.90;;;;;;4649100;29;177929;-68
2020/12/17 10:14:29;;;;;;;19.30;13.23;;;5.50;99.90;;;;;;4649743;29;178371;-69
2020/12/17 10:17:00;;;;;;;29.50;13.60;;;5.70;99.90;;;;;;4649136;29;178235;-70
2020/12/17 10:19:28;;;;;;;25.47;13.53;;;5.50;99.90;;;;;;4632137;29;179485;-69
2020/12/17 10:21:55;;;;;;;35.53;14.47;;;5.40;99.90;;;;;;4637281;29;178656;-69
2020/12/17 10:24:21;;;;;;;20.90;13.47;;;5.50;99.90;;;;;;4649467;29;178557;-70
2020/12/17 10:26:47;;;;;;;22.80;12.37;;;5.50;99.90;;;;;;4646859;29;183347;-70
2020/12/17 10:29:23;;;;;;;19.30;12.83;;;5.60;99.90;;;;;;4644689;29;182678;-70
2020/12/17 10:31:49;;;;;;;23.97;12.77;;;5.60;99.90;;;;;;4649139;29;177962;-69
2020/12/17 10:34:17;;;;;;;30.47;14.23;;;5.60;99.90;;;;;;4648767;29;178139;-69
2020/12/17 10:36:44;;;;;;;29.13;14.00;;;5.60;99.90;;;;;;4642945;29;179274;-68
2020/12/17 10:39:12;;;;;;;25.27;12.40;;;5.60;99.90;;;;;;4646158;29;177868;-69
2020/12/17 10:41:39;;;;;;;20.57;12.93;;;5.60;99.90;;;;;;4646411;29;178398;-74
2020/12/17 10:44:06;;;;;;;23.87;13.30;;;5.70;99.90;;;;;;4646987;29;177255;-71
2020/12/17 10:46:35;;;;;;;16.53;12.50;;;5.70;99.90;;;;;;4646636;29;179323;-69
2020/12/17 10:49:06;;;;;;;21.03;12.97;;;5.70;99.90;;;;;;4644946;29;179513;-71
2020/12/17 10:51:32;;;;;;;24.67;12.87;;;5.80;99.90;;;;;;4644153;29;182147;-69
2020/12/17 10:54:00;;;;;;;20.60;12.20;;;5.80;99.90;;;;;;4644655;29;178780;-69
2020/12/17 10:56:26;;;;;;;27.47;12.57;;;5.80;99.90;;;;;;4644449;29;179476;-69
2020/12/17 10:58:54;;;;;;;18.43;12.43;;;5.90;99.90;;;;;;4644991;29;178491;-69
2020/12/17 11:01:22;;;;;;;18.00;11.80;;;5.90;99.90;;;;;;4642993;29;182283;-70
2020/12/17 11:03:48;;;;;;;19.03;12.77;;;5.90;99.90;;;;;;4641541;29;178962;-71
2020/12/17 11:06:16;;;;;;;17.37;10.97;;;6.00;99.90;;;;;;4644943;29;179399;-70
2020/12/17 11:08:43;;;;;;;15.90;11.83;;;6.10;99.90;;;;;;4645655;29;177900;-72
2020/12/17 11:11:10;;;;;;;22.13;12.77;;;6.10;99.90;;;;;;4641291;29;178873;-71
2020/12/17 11:13:36;;;;;;;30.07;12.70;;;6.20;99.90;;;;;;4642781;29;179347;-70
2020/12/17 11:16:02;;;;;;;16.70;12.63;;;6.20;99.90;;;;;;4640146;29;183793;-69
2020/12/17 11:18:29;;;;;;;23.20;12.53;;;6.20;99.90;;;;;;4637007;29;182342;-71
2020/12/17 11:20:55;;;;;;;16.30;11.90;;;6.30;99.90;;;;;;4638212;29;179198;-71
2020/12/17 11:23:22;;;;;;;17.53;11.53;;;6.30;99.90;;;;;;4641979;29;178345;-72
2020/12/17 11:25:48;;;;;;;19.47;11.67;;;6.40;99.90;;;;;;4645011;29;180474;-73
2020/12/17 11:28:14;;;;;;;18.20;11.83;;;6.40;99.90;;;;;;4647836;29;178100;-71
2020/12/17 11:30:41;;;;;;;20.97;12.23;;;6.40;99.90;;;;;;4648151;29;178679;-71
2020/12/17 11:33:07;;;;;;;19.63;12.30;;;6.50;99.90;;;;;;4648758;29;177107;-71
2020/12/17 11:35:34;;;;;;;14.53;10.57;;;6.50;99.90;;;;;;4648118;29;179684;-72
2020/12/17 11:38:00;;;;;;;16.10;11.87;;;6.50;99.90;;;;;;4651100;29;178398;-72
2020/12/17 11:40:26;;;;;;;15.30;11.80;;;6.50;99.90;;;;;;4650012;29;181224;-75
2020/12/17 11:42:55;;;;;;;21.93;11.37;;;6.60;99.90;;;;;;4651694;29;178030;-72
2020/12/17 11:45:21;;;;;;;15.83;11.43;;;6.60;99.90;;;;;;4651444;29;179505;-71
2020/12/17 11:47:47;;;;;;;17.87;11.53;;;6.60;99.90;;;;;;4649913;29;178051;-72
2020/12/17 11:50:15;;;;;;;16.90;11.60;;;6.70;99.90;;;;;;4651670;29;178720;-71
2020/12/17 11:52:41;;;;;;;13.50;10.47;;;6.70;99.90;;;;;;4650991;29;178979;-72
2020/12/17 11:55:09;;;;;;;16.13;11.30;;;6.70;99.90;;;;;;4650724;29;182393;-71
2020/12/17 11:57:39;;;;;;;16.77;12.17;;;6.70;99.90;;;;;;4651838;29;178967;-71
2020/12/17 12:00:08;;;;;;;14.50;11.63;;;6.70;99.90;;;;;;4651787;29;178712;-71
2020/12/17 12:02:35;;;;;;;17.13;11.97;;;6.70;99.90;;;;;;4649796;29;179264;-73
2020/12/17 12:05:02;;;;;;;17.60;11.77;;;6.70;99.90;;;;;;4649435;29;183210;-75
2020/12/17 12:07:29;;;;;;;17.60;12.40;;;6.80;99.90;;;;;;4651159;29;180894;-71
2020/12/17 12:09:56;;;;;;;17.20;11.47;;;6.80;99.90;;;;;;4651349;29;178049;-71
2020/12/17 12:12:23;;;;;;;16.03;11.63;;;6.80;99.90;;;;;;4651376;29;177910;-72
2020/12/17 12:14:51;;;;;;;14.83;11.47;;;6.80;99.90;;;;;;4650899;29;178825;-71
2020/12/17 12:17:17;;;;;;;16.00;11.83;;;6.90;99.90;;;;;;4651060;29;178170;-71
2020/12/17 12:19:43;;;;;;;18.03;11.07;;;6.90;99.90;;;;;;4651131;29;177888;-69
2020/12/17 12:22:10;;;;;;;15.83;10.87;;;7.00;99.90;;;;;;4651900;29;177075;-70
2020/12/17 12:24:37;;;;;;;15.73;11.33;;;6.90;99.90;;;;;;4651016;29;179992;-70
2020/12/17 12:27:04;;;;;;;16.37;11.27;;;7.00;99.90;;;;;;4651084;29;178300;-71
2020/12/17 12:29:31;;;;;;;15.77;11.07;;;7.00;99.90;;;;;;4649309;29;181259;-71
2020/12/17 12:31:59;;;;;;;16.03;11.33;;;7.00;99.90;;;;;;4650721;29;178531;-72
2020/12/17 12:34:29;;;;;;;15.33;11.00;;;7.10;99.90;;;;;;4649891;29;179288;-71
2020/12/17 12:36:58;;;;;;;16.97;10.83;;;7.10;99.90;;;;;;4651280;29;177867;-76
2020/12/17 12:39:25;;;;;;;16.90;11.57;;;7.10;99.90;;;;;;4650890;29;177921;-70
2020/12/17 12:41:52;;;;;;;15.63;11.27;;;7.10;99.90;;;;;;4651054;29;178814;-71
2020/12/17 12:44:19;;;;;;;16.60;11.37;;;7.20;99.90;;;;;;4650233;29;178321;-71
2020/12/17 12:46:49;;;;;;;17.63;11.60;;;7.20;99.90;;;;;;4650888;29;180712;-70
2020/12/17 12:49:16;;;;;;;15.97;11.17;;;7.20;99.90;;;;;;4650329;29;178112;-73
2020/12/17 12:51:43;;;;;;;14.47;10.97;;;7.20;99.90;;;;;;4650652;29;178732;-71
2020/12/17 12:54:10;;;;;;;14.17;10.80;;;7.20;99.90;;;;;;4648403;29;183316;-70
2020/12/17 12:56:36;;;;;;;14.47;10.90;;;7.20;99.90;;;;;;4649203;29;180435;-70
2020/12/17 12:59:03;;;;;;;16.40;11.60;;;7.20;99.90;;;;;;4650985;29;177994;-70
2020/12/17 13:01:37;;;;;;;16.53;11.80;;;7.20;99.90;;;;;;4650473;29;179146;-71
2020/12/17 13:04:05;;;;;;;14.30;10.83;;;7.20;99.90;;;;;;4650841;29;177993;-70
2020/12/17 13:06:32;;;;;;;15.40;10.67;;;7.20;99.90;;;;;;4650536;29;178658;-69
2020/12/17 13:09:03;;;;;;;13.90;10.73;;;7.20;99.90;;;;;;4650811;29;177907;-69
2020/12/17 13:11:29;;;;;;;15.93;11.50;;;7.20;99.90;;;;;;4650961;29;177188;-70
2020/12/17 13:13:57;;;;;;;15.23;10.73;;;7.20;99.90;;;;;;4650347;29;179040;-70
2020/12/17 13:16:31;;;;;;;13.83;10.50;;;7.20;99.90;;;;;;4650182;29;179534;-71
2020/12/17 13:18:58;;;;;;;15.30;10.77;;;7.20;99.90;;;;;;4647429;29;181940;-69
2020/12/17 13:21:25;;;;;;;15.90;11.23;;;7.20;99.90;;;;;;4650160;29;178436;-69
2020/12/17 13:23:52;;;;;;;13.50;10.23;;;7.20;99.90;;;;;;4649497;29;179389;-69
2020/12/17 13:26:20;;;;;;;14.20;10.63;;;7.20;99.90;;;;;;4649776;29;177994;-70
2020/12/17 13:28:47;;;;;;;15.37;10.60;;;7.20;99.90;;;;;;4648234;29;178168;-69
2020/12/17 13:31:20;;;;;;;14.13;10.73;;;7.20;99.90;;;;;;4649888;29;178360;-72
2020/12/17 13:33:50;;;;;;;13.57;10.67;;;7.20;99.90;;;;;;4650451;29;179397;-69
2020/12/17 13:36:18;;;;;;;19.43;10.43;;;7.20;99.90;;;;;;4649059;29;179031;-69
2020/12/17 13:38:45;;;;;;;12.20;9.30;;;7.20;99.90;;;;;;4648562;29;178706;-69
2020/12/17 13:41:11;;;;;;;13.77;9.93;;;7.30;99.90;;;;;;4651089;29;177985;-69
2020/12/17 13:43:37;;;;;;;15.13;10.27;;;7.30;99.90;;;;;;4649453;29;183260;-68
2020/12/17 13:46:04;;;;;;;14.53;10.13;;;7.30;99.90;;;;;;4649570;29;181121;-68
2020/12/17 13:48:31;;;;;;;14.13;9.90;;;7.30;99.90;;;;;;4649582;29;178908;-69
2020/12/17 13:50:57;;;;;;;13.20;9.87;;;7.30;99.90;;;;;;4649836;29;178125;-69
2020/12/17 13:53:24;;;;;;;13.77;9.67;;;7.30;99.90;;;;;;4650079;29;179322;-68
2020/12/17 13:55:52;;;;;;;12.13;9.07;;;7.30;99.90;;;;;;4651097;29;178330;-69
2020/12/17 13:58:18;;;;;;;13.23;8.97;;;7.30;99.90;;;;;;4651178;29;177871;-69
2020/12/17 14:00:45;;;;;;;12.90;9.30;;;7.30;99.90;;;;;;4648393;29;177661;-69
2020/12/17 14:03:11;;;;;;;11.30;8.27;;;7.30;99.90;;;;;;4642779;29;181389;-69
2020/12/17 14:05:37;;;;;;;13.40;8.97;;;7.30;99.90;;;;;;4644394;29;181760;-69
2020/12/17 14:08:04;;;;;;;12.00;8.97;;;7.40;99.90;;;;;;4647933;29;184993;-69
2020/12/17 14:10:30;;;;;;;12.17;8.80;;;7.40;99.90;;;;;;4648556;29;178766;-68
2020/12/17 14:12:57;;;;;;;11.90;8.53;;;7.40;99.90;;;;;;4646121;29;179680;-71
2020/12/17 14:15:23;;;;;;;9.80;7.67;;;7.50;99.90;;;;;;4645784;29;178622;-69
2020/12/17 14:17:50;;;;;;;10.00;7.63;;;7.40;99.90;;;;;;4648498;29;179238;-70
2020/12/17 14:20:16;;;;;;;10.27;8.03;;;7.40;99.90;;;;;;4650179;29;178144;-69
2020/12/17 14:22:42;;;;;;;11.23;7.43;;;7.40;99.90;;;;;;4650488;29;179421;-68
2020/12/17 14:25:08;;;;;;;11.03;7.67;;;7.50;99.90;;;;;;4651397;29;179255;-68
2020/12/17 14:27:34;;;;;;;15.23;7.90;;;7.50;99.90;;;;;;4650882;29;178423;-68
2020/12/17 14:30:01;;;;;;;14.80;7.67;;;7.40;99.90;;;;;;4650682;29;177980;-69
2020/12/17 14:32:27;;;;;;;12.17;8.10;;;7.50;99.90;;;;;;4648381;29;182947;-69
2020/12/17 14:34:53;;;;;;;9.23;7.60;;;7.40;99.90;;;;;;4650432;29;182588;-69
2020/12/17 14:37:19;;;;;;;11.40;7.20;;;7.50;99.90;;;;;;4650749;29;178827;-69
2020/12/17 14:39:45;;;;;;;9.97;7.53;;;7.50;99.90;;;;;;4650852;29;177895;-68
2020/12/17 14:42:12;;;;;;;10.63;7.20;;;7.50;99.90;;;;;;4650236;29;178864;-69
2020/12/17 14:44:38;;;;;;;9.43;6.97;;;7.50;99.90;;;;;;4644601;29;178155;-69
2020/12/17 14:47:05;;;;;;;8.60;6.73;;;7.50;99.90;;;;;;4649842;29;178832;-68
2020/12/17 14:49:32;;;;;;;8.20;7.00;;;7.50;99.90;;;;;;4644442;29;179322;-69
2020/12/17 14:51:59;;;;;;;9.80;7.27;;;7.50;99.90;;;;;;4645346;29;180017;-68
2020/12/17 14:54:25;;;;;;;8.77;6.97;;;7.50;99.90;;;;;;4644511;29;178943;-68
2020/12/17 14:56:52;;;;;;;10.83;6.53;;;7.50;99.90;;;;;;4646665;29;181456;-68
2020/12/17 14:59:19;;;;;;;8.23;6.90;;;7.50;99.90;;;;;;4646847;29;178078;-68
2020/12/17 15:01:56;;;;;;;23.63;7.63;;;7.50;99.90;;;;;;4642967;29;182033;-69
2020/12/17 15:04:25;;;;;;;17.53;8.37;;;7.50;99.90;;;;;;4643925;29;181474;-68
2020/12/17 15:06:51;;;;;;;12.10;6.80;;;7.50;99.90;;;;;;4646890;29;178660;-70
2020/12/17 15:09:18;;;;;;;11.77;6.57;;;7.50;99.90;;;;;;4646647;29;180066;-72
2020/12/17 15:11:44;;;;;;;12.10;6.80;;;7.50;99.90;;;;;;4644324;29;179220;-69
2020/12/17 15:14:10;;;;;;;8.20;6.57;;;7.50;99.90;;;;;;4646296;29;179188;-72
2020/12/17 15:16:36;;;;;;;9.93;6.43;;;7.60;99.90;;;;;;4646303;29;178544;-70
2020/12/17 15:19:04;;;;;;;7.90;6.50;;;7.60;99.90;;;;;;4644265;29;178506;-70
2020/12/17 15:21:30;;;;;;;7.73;6.30;;;7.60;99.90;;;;;;4641941;29;183400;-69
2020/12/17 15:23:57;;;;;;;8.03;6.23;;;7.60;99.90;;;;;;4643988;29;180837;-70
2020/12/17 15:26:23;;;;;;;25.00;8.13;;;7.60;99.90;;;;;;4643528;29;178196;-71
2020/12/17 15:28:50;;;;;;;8.90;6.77;;;7.60;99.90;;;;;;4643579;29;179081;-70
2020/12/17 15:31:17;;;;;;;10.73;6.13;;;7.60;99.90;;;;;;4645182;29;178766;-72
2020/12/17 15:33:43;;;;;;;9.70;6.80;;;7.60;99.90;;;;;;4644077;29;178021;-70
2020/12/17 15:36:10;;;;;;;11.13;7.07;;;7.60;99.90;;;;;;4644685;29;178024;-70
2020/12/17 15:38:38;;;;;;;8.13;6.53;;;7.60;99.90;;;;;;4646875;29;177222;-70
2020/12/17 15:41:11;;;;;;;9.70;7.00;;;7.70;99.90;;;;;;4643694;29;178605;-71
2020/12/17 15:43:38;;;;;;;15.43;6.63;;;7.70;99.90;;;;;;4644516;29;178523;-70
2020/12/17 15:46:06;;;;;;;14.13;6.87;;;7.70;99.90;;;;;;4641300;29;181376;-70
2020/12/17 15:48:35;;;;;;;10.77;7.03;;;7.70;99.90;;;;;;4647093;29;178441;-71
2020/12/17 15:51:07;;;;;;;11.23;6.83;;;7.60;99.90;;;;;;4646541;29;180063;-71
2020/12/17 15:53:34;;;;;;;8.43;7.00;;;7.60;99.90;;;;;;4644918;29;179060;-72
2020/12/17 15:56:00;;;;;;;11.67;6.63;;;7.70;99.90;;;;;;4641014;29;181402;-71
2020/12/17 15:58:27;;;;;;;8.07;6.67;;;7.70;99.90;;;;;;4646140;29;178098;-72
2020/12/17 16:00:53;;;;;;;9.13;6.87;;;7.70;99.90;;;;;;4646028;29;179037;-73
2020/12/17 16:03:19;;;;;;;9.50;6.60;;;7.70;99.90;;;;;;4644077;29;179298;-73
2020/12/17 16:05:46;;;;;;;10.90;7.60;;;7.70;99.90;;;;;;4645385;29;179010;-72
2020/12/17 16:08:12;;;;;;;19.43;7.97;;;7.70;99.90;;;;;;4644919;29;178718;-74
2020/12/17 16:10:38;;;;;;;10.00;7.70;;;7.70;99.90;;;;;;4643330;29;183437;-72
2020/12/17 16:13:05;;;;;;;10.17;7.47;;;7.70;99.90;;;;;;4642063;29;181556;-72
2020/12/17 16:15:31;;;;;;;13.73;8.37;;;7.70;99.90;;;;;;4644274;29;179557;-75
2020/12/17 16:17:58;;;;;;;39.40;10.27;;;7.60;99.90;;;;;;4652352;29;178725;-73
2020/12/17 16:20:24;;;;;;;49.80;10.97;;;7.60;99.90;;;;;;4648923;29;180912;-75
2020/12/17 16:22:50;;;;;;;10.70;7.67;;;7.60;99.90;;;;;;4642014;29;178039;-73
2020/12/17 16:25:18;;;;;;;9.97;7.70;;;7.60;99.90;;;;;;4645796;29;177996;-74
2020/12/17 16:27:44;;;;;;;20.67;8.57;;;7.60;99.90;;;;;;4634490;29;177334;-74
2020/12/17 16:30:10;;;;;;;24.13;8.20;;;7.60;99.90;;;;;;4648546;29;178629;-74
2020/12/17 16:32:36;;;;;;;9.60;7.63;;;7.60;99.90;;;;;;4646653;29;178081;-73
2020/12/17 16:35:03;;;;;;;20.07;8.23;;;7.60;99.90;;;;;;4647203;29;182562;-73
2020/12/17 16:37:29;;;;;;;11.97;8.63;;;7.50;99.90;;;;;;4648520;29;179061;-73
2020/12/17 16:39:55;;;;;;;12.30;8.67;;;7.50;99.90;;;;;;4647431;29;178566;-74
2020/12/17 16:42:22;;;;;;;10.20;7.77;;;7.50;99.90;;;;;;4647161;29;179340;-73
2020/12/17 16:44:48;;;;;;;20.67;9.00;;;7.50;99.90;;;;;;4647979;29;180342;-74
2020/12/17 16:47:14;;;;;;;12.83;9.27;;;7.50;99.90;;;;;;4647171;29;178218;-73
2020/12/17 16:49:43;;;;;;;10.83;7.83;;;7.50;99.90;;;;;;4646514;29;179179;-73
2020/12/17 16:52:09;;;;;;;37.90;9.80;;;7.50;99.90;;;;;;4646939;29;178896;-73
2020/12/17 16:54:36;;;;;;;18.93;9.17;;;7.50;99.90;;;;;;4646906;29;178561;-72
2020/12/17 16:57:09;;;;;;;11.43;8.13;;;7.50;99.90;;;;;;4648330;29;178609;-73
2020/12/17 16:59:37;;;;;;;11.50;8.73;;;7.50;99.90;;;;;;4647427;29;182631;-73
2020/12/17 17:02:07;;;;;;;11.93;8.47;;;7.50;99.90;;;;;;4644305;29;181389;-73
2020/12/17 17:04:34;;;;;;;14.93;9.30;;;7.40;99.90;;;;;;4646293;29;178086;-73
2020/12/17 17:07:05;;;;;;;24.67;11.50;;;7.50;99.90;;;;;;4643646;29;178742;-73
2020/12/17 17:09:32;;;;;;;11.53;9.23;;;7.50;99.90;;;;;;4646597;29;181065;-72
2020/12/17 17:11:58;;;;;;;9.87;8.30;;;7.50;99.90;;;;;;4646051;29;179877;-72
2020/12/17 17:14:28;;;;;;;11.33;8.97;;;7.40;99.90;;;;;;4648778;29;178659;-72
2020/12/17 17:16:54;;;;;;;11.33;9.43;;;7.50;99.90;;;;;;4647833;29;176597;-72
2020/12/17 17:19:21;;;;;;;13.93;10.03;;;7.50;99.90;;;;;;4645718;29;178214;-72
2020/12/17 17:21:52;;;;;;;58.87;12.97;;;7.50;99.90;;;;;;4643014;29;179188;-72
2020/12/17 17:24:19;;;;;;;16.20;10.10;;;7.50;99.90;;;;;;4645836;29;181981;-73
2020/12/17 17:26:48;;;;;;;12.30;9.40;;;7.40;99.90;;;;;;4644627;29;178030;-72
2020/12/17 17:29:15;;;;;;;12.37;9.33;;;7.50;99.90;;;;;;4645878;29;180137;-72
2020/12/17 17:31:42;;;;;;;21.33;10.20;;;7.50;99.90;;;;;;4644250;29;178702;-72
2020/12/17 17:34:08;;;;;;;17.50;11.47;;;7.50;99.90;;;;;;4646067;29;178853;-72
2020/12/17 17:36:35;;;;;;;14.57;10.43;;;7.40;99.90;;;;;;4644432;29;178808;-72
2020/12/17 17:39:02;;;;;;;11.67;9.90;;;7.50;99.90;;;;;;4644275;29;179676;-71
2020/12/17 17:41:28;;;;;;;11.50;8.80;;;7.40;99.90;;;;;;4645848;29;178451;-72